Time;durP1;ratioP1;P1;durP2;ratioP2;P2;SDS_P1;SDS_P2;PMS_P1;PMS_P2;Temp;Humidity;BMP_temperature;BMP_pressure;BME280_temperature;BME280_humidity;BME280_pressure;Samples;Min_cycle;Max_cycle;Signal;HPM_P1;HPM_P2
2021/05/16 00:02:33;;;;;;;4.38;1.20;;;21.30;52.20;;;;;;20754492;28;20469;-21
2021/05/16 00:12:34;;;;;;;4.00;1.25;;;21.20;52.20;;;;;;20748468;28;20037;-21
2021/05/16 00:22:38;;;;;;;7.28;0.95;;;21.10;52.30;;;;;;20747563;28;20116;-21
2021/05/16 00:32:39;;;;;;;4.13;0.88;;;21.10;52.40;;;;;;20746444;28;20022;-21
2021/05/16 00:42:40;;;;;;;6.80;1.30;;;21.00;52.60;;;;;;20745852;28;20061;-21
2021/05/16 00:52:41;;;;;;;1.85;0.73;;;21.00;52.40;;;;;;20759086;28;20029;-21
2021/05/16 01:02:43;;;;;;;2.10;0.70;;;20.90;52.40;;;;;;20755280;28;20030;-21
2021/05/16 01:12:46;;;;;;;4.45;1.10;;;20.90;52.50;;;;;;20828280;22;20056;-22
2021/05/16 01:22:54;;;;;;;4.05;0.80;;;20.80;52.40;;;;;;20856871;28;20029;-22
2021/05/16 01:32:55;;;;;;;4.03;1.33;;;20.80;52.40;;;;;;20880796;28;20029;-22
2021/05/16 01:42:57;;;;;;;1.33;0.57;;;20.70;52.40;;;;;;20892695;28;20091;-21
2021/05/16 01:53:00;;;;;;;1.08;0.50;;;20.70;52.40;;;;;;20909179;28;20491;-21
2021/05/16 02:03:01;;;;;;;3.20;0.65;;;20.60;52.40;;;;;;20856204;28;20094;-23
2021/05/16 02:13:02;;;;;;;1.55;0.77;;;20.60;52.40;;;;;;20830876;28;20407;-20
2021/05/16 02:23:03;;;;;;;1.20;0.70;;;20.50;52.40;;;;;;20833756;28;20111;-22
2021/05/16 02:33:05;;;;;;;1.08;0.50;;;20.50;52.50;;;;;;20828865;28;20037;-22
2021/05/16 02:43:05;;;;;;;1.13;0.55;;;20.50;52.50;;;;;;20874672;28;20480;-22
2021/05/16 02:53:06;;;;;;;2.83;0.50;;;20.40;52.50;;;;;;20868317;28;20049;-22
2021/05/16 03:03:07;;;;;;;2.10;0.60;;;20.40;52.60;;;;;;20886106;28;20040;-22
2021/05/16 03:13:07;;;;;;;1.75;0.52;;;20.40;52.60;;;;;;20838071;28;20037;-22
2021/05/16 03:23:08;;;;;;;2.40;1.10;;;20.30;52.60;;;;;;20846080;28;20029;-22
2021/05/16 03:33:09;;;;;;;1.67;0.70;;;20.30;52.60;;;;;;20847575;28;20549;-22
2021/05/16 03:43:09;;;;;;;2.30;0.52;;;20.30;52.60;;;;;;20838661;28;20025;-22
2021/05/16 03:53:10;;;;;;;1.40;0.47;;;20.30;52.60;;;;;;20856022;28;20076;-22
2021/05/16 04:03:10;;;;;;;4.28;0.80;;;20.30;52.50;;;;;;20833153;28;20111;-22
2021/05/16 04:13:11;;;;;;;1.88;0.70;;;20.20;52.50;;;;;;20826122;28;20061;-22
2021/05/16 04:23:11;;;;;;;1.20;0.57;;;20.20;52.50;;;;;;20820509;28;20045;-22
2021/05/16 04:33:12;;;;;;;0.70;0.40;;;20.20;52.50;;;;;;20844266;28;20096;-22
2021/05/16 04:43:13;;;;;;;3.23;0.80;;;20.10;52.40;;;;;;20848092;28;20026;-21
2021/05/16 04:53:14;;;;;;;1.05;0.65;;;20.10;52.40;;;;;;20835555;28;20873;-22
2021/05/16 05:03:15;;;;;;;1.92;0.75;;;20.10;52.40;;;;;;20832464;28;20494;-22
2021/05/16 05:13:16;;;;;;;1.33;0.57;;;20.10;52.40;;;;;;20818906;28;20448;-20
2021/05/16 05:23:17;;;;;;;4.38;0.80;;;20.00;52.40;;;;;;20817303;28;20076;-22
2021/05/16 05:33:22;;;;;;;2.78;0.50;;;20.10;52.50;;;;;;20838066;28;20053;-22
2021/05/16 05:43:22;;;;;;;2.45;0.85;;;20.10;52.50;;;;;;20820122;28;20514;-22
2021/05/16 05:53:23;;;;;;;2.10;0.70;;;20.00;52.50;;;;;;20843246;28;20068;-22
2021/05/16 06:03:24;;;;;;;2.10;0.70;;;20.00;52.50;;;;;;20838593;28;20448;-21
2021/05/16 06:13:24;;;;;;;2.53;1.60;;;20.00;52.50;;;;;;20828731;28;20071;-21
2021/05/16 06:23:33;;;;;;;2.33;0.77;;;20.20;52.30;;;;;;20813489;28;20033;-22
2021/05/16 06:33:33;;;;;;;2.35;1.05;;;20.80;50.80;;;;;;20832319;28;20056;-21
2021/05/16 06:43:34;;;;;;;8.18;0.90;;;21.60;49.10;;;;;;20871826;28;20070;-22
2021/05/16 06:53:34;;;;;;;4.50;0.95;;;22.40;47.80;;;;;;20798136;28;20519;-22
2021/05/16 07:03:37;;;;;;;3.17;0.85;;;22.80;46.90;;;;;;20830761;28;20041;-22
2021/05/16 07:13:38;;;;;;;2.97;0.88;;;22.60;47.30;;;;;;20823099;28;20558;-22
2021/05/16 07:23:38;;;;;;;6.78;1.20;;;22.40;47.80;;;;;;20814803;23;20089;-22
2021/05/16 07:33:40;;;;;;;13.93;1.23;;;22.10;48.40;;;;;;20869754;28;20033;-20
2021/05/16 07:43:41;;;;;;;18.83;2.28;;;21.90;49.50;;;;;;20918892;28;20461;-21
2021/05/16 07:53:41;;;;;;;19.17;2.70;;;22.20;49.00;;;;;;20910595;28;20054;-21
2021/05/16 08:03:45;;;;;;;15.40;2.03;;;22.70;48.00;;;;;;20894446;28;20025;-21
2021/05/16 08:13:45;;;;;;;19.50;5.32;;;22.70;47.50;;;;;;20845105;28;20029;-21
2021/05/16 08:23:46;;;;;;;19.02;4.25;;;22.90;47.60;;;;;;20873700;28;20072;-20
2021/05/16 08:33:46;;;;;;;19.73;4.45;;;23.10;47.20;;;;;;20837437;28;20033;-20
2021/05/16 08:43:47;;;;;;;19.38;4.20;;;23.40;46.50;;;;;;20831488;28;20026;-21
2021/05/16 08:53:48;;;;;;;19.77;4.50;;;23.40;46.40;;;;;;20836878;28;20116;-21
2021/05/16 09:03:50;;;;;;;18.70;4.47;;;23.50;46.40;;;;;;20815254;28;20049;-21
2021/05/16 09:13:52;;;;;;;20.55;4.82;;;23.40;46.40;;;;;;20826477;28;20053;-21
2021/05/16 09:24:02;;;;;;;15.40;3.38;;;23.50;46.30;;;;;;20826295;28;20025;-21
2021/05/16 09:34:04;;;;;;;13.02;3.33;;;23.30;46.70;;;;;;20822422;28;20780;-21
2021/05/16 09:44:32;;;;;;;10.52;2.55;;;23.30;46.80;;;;;;20840926;28;20492;-21
2021/05/16 09:55:11;;;;;;;6.80;2.47;;;23.30;46.50;;;;;;20881384;28;20510;-21
2021/05/16 10:05:14;;;;;;;18.10;4.50;;;23.20;46.80;;;;;;20873490;28;20113;-21
2021/05/16 10:15:23;;;;;;;13.40;2.67;;;23.30;46.60;;;;;;20868409;28;20443;-21
2021/05/16 10:25:39;;;;;;;11.52;3.65;;;23.20;46.90;;;;;;20871175;28;20029;-22
2021/05/16 10:35:50;;;;;;;11.20;2.35;;;22.90;47.60;;;;;;20894247;28;20025;-21
2021/05/16 10:45:50;;;;;;;13.27;3.10;;;22.60;48.30;;;;;;20902457;28;20065;-22
2021/05/16 10:56:09;;;;;;;8.73;2.55;;;22.40;48.80;;;;;;20890390;28;20100;-22
2021/05/16 11:06:10;;;;;;;8.07;2.33;;;22.00;49.30;;;;;;20894264;28;20074;-22
2021/05/16 11:16:11;;;;;;;7.65;2.35;;;21.90;49.60;;;;;;20904931;28;20510;-21
2021/05/16 11:26:14;;;;;;;7.50;2.15;;;22.00;49.70;;;;;;20881600;28;20039;-20
2021/05/16 11:36:17;;;;;;;13.93;2.03;;;21.90;50.30;;;;;;20902218;28;20021;-20
2021/05/16 11:46:28;;;;;;;9.18;2.78;;;21.80;50.00;;;;;;20916361;28;20113;-22
2021/05/16 11:56:30;;;;;;;8.13;1.80;;;21.70;50.40;;;;;;20915366;28;20028;-22
2021/05/16 12:06:41;;;;;;;7.03;2.92;;;21.50;50.80;;;;;;20914607;28;20103;-21
2021/05/16 12:17:01;;;;;;;9.30;2.33;;;21.40;51.00;;;;;;20914291;28;20021;-21
2021/05/16 12:27:07;;;;;;;9.15;2.10;;;21.30;51.10;;;;;;20912410;28;20029;-20
2021/05/16 12:37:21;;;;;;;13.40;2.72;;;21.20;51.20;;;;;;20899296;28;20044;-21
2021/05/16 12:47:27;;;;;;;4.60;1.85;;;21.20;51.20;;;;;;20878855;28;20029;-22
2021/05/16 13:07:49;;;;;;;6.88;1.80;;;21.10;51.30;;;;;;20830201;28;20048;-21
2021/05/16 13:17:49;;;;;;;6.95;1.90;;;21.10;51.40;;;;;;20828788;28;20401;-21
2021/05/16 13:27:55;;;;;;;25.38;4.03;;;21.00;51.40;;;;;;20843532;22;20046;-22
2021/05/16 13:37:55;;;;;;;31.88;6.03;;;21.10;51.80;;;;;;20850374;28;20025;-20
2021/05/16 13:47:56;;;;;;;28.37;4.37;;;21.20;52.20;;;;;;20896310;28;20048;-20
2021/05/16 13:58:01;;;;;;;47.47;6.47;;;21.40;51.80;;;;;;20900354;28;20035;-20
2021/05/16 14:08:02;;;;;;;35.70;7.13;;;21.40;51.70;;;;;;20878073;28;20442;-20
2021/05/16 14:18:03;;;;;;;37.55;6.40;;;21.50;51.60;;;;;;20890513;28;20049;-21
2021/05/16 14:28:04;;;;;;;37.47;8.33;;;21.50;51.50;;;;;;20874777;28;20107;-21
2021/05/16 14:38:05;;;;;;;48.08;7.90;;;21.40;51.50;;;;;;20901594;28;20447;-21
2021/05/16 14:48:06;;;;;;;40.08;7.15;;;21.30;51.90;;;;;;20882034;28;20031;-21
2021/05/16 14:58:07;;;;;;;49.50;7.65;;;21.20;51.40;;;;;;20897315;28;20033;-21
2021/05/16 15:08:07;;;;;;;24.98;5.65;;;21.10;51.20;;;;;;20896655;28;20099;-21
2021/05/16 15:18:08;;;;;;;16.40;4.82;;;21.10;50.80;;;;;;20886551;28;20025;-20
2021/05/16 15:28:08;;;;;;;19.48;3.80;;;21.00;50.50;;;;;;20918279;28;20048;-20
2021/05/16 15:38:09;;;;;;;17.60;3.60;;;21.00;50.40;;;;;;20877571;28;20121;-21
2021/05/16 15:48:10;;;;;;;17.35;3.50;;;20.90;50.40;;;;;;20837038;28;20037;-21
2021/05/16 15:58:11;;;;;;;14.65;3.60;;;20.90;50.40;;;;;;20831686;28;20030;-21
2021/05/16 16:08:12;;;;;;;12.90;3.60;;;21.10;50.00;;;;;;20829246;28;20034;-21
2021/05/16 16:18:13;;;;;;;16.50;4.30;;;21.20;49.60;;;;;;20854955;28;20066;-20
2021/05/16 16:28:13;;;;;;;18.67;3.93;;;21.30;49.20;;;;;;20831525;28;20120;-22
2021/05/16 16:38:14;;;;;;;9.35;2.80;;;21.30;49.10;;;;;;20848159;28;20459;-22
2021/05/16 16:48:15;;;;;;;18.55;3.65;;;21.40;49.00;;;;;;20851385;28;20122;-22
2021/05/16 16:58:17;;;;;;;12.25;4.28;;;21.40;48.70;;;;;;20830785;28;20065;-22
2021/05/16 17:08:18;;;;;;;17.80;5.05;;;21.40;49.30;;;;;;20829478;28;20121;-22
2021/05/16 17:18:19;;;;;;;15.45;4.03;;;21.40;49.20;;;;;;20832343;28;20025;-22
2021/05/16 17:28:20;;;;;;;13.27;3.50;;;21.40;49.80;;;;;;20865122;28;20039;-22
2021/05/16 17:38:21;;;;;;;26.58;5.05;;;21.40;50.10;;;;;;20909680;28;20819;-21
2021/05/16 17:48:22;;;;;;;32.05;6.25;;;21.40;50.60;;;;;;20909311;28;20021;-22
2021/05/16 17:58:22;;;;;;;23.30;4.55;;;21.30;51.20;;;;;;20915130;28;20079;-22
2021/05/16 18:08:23;;;;;;;24.55;5.18;;;21.20;51.90;;;;;;20919777;28;20040;-21
2021/05/16 18:18:24;;;;;;;23.57;5.70;;;21.10;52.80;;;;;;20908410;28;20036;-20
2021/05/16 18:28:25;;;;;;;21.13;4.43;;;21.00;53.50;;;;;;20908861;28;21021;-21
2021/05/16 18:38:27;;;;;;;34.78;5.95;;;21.00;52.90;;;;;;20896506;28;20032;-21
2021/05/16 18:48:31;;;;;;;21.00;4.45;;;21.00;52.90;;;;;;20914054;28;20025;-20
2021/05/16 18:58:33;;;;;;;10.95;3.67;;;20.90;53.00;;;;;;20929937;28;20079;-20
2021/05/16 19:08:36;;;;;;;16.65;4.60;;;20.90;53.20;;;;;;20928757;28;20040;-22
2021/05/16 19:18:37;;;;;;;26.27;5.57;;;21.10;52.10;;;;;;20931811;28;20112;-20
2021/05/16 19:28:38;;;;;;;37.22;5.65;;;21.10;52.60;;;;;;20917012;28;20491;-22
2021/05/16 19:38:40;;;;;;;18.58;4.30;;;21.30;53.00;;;;;;20923228;28;20025;-21
2021/05/16 19:48:41;;;;;;;16.98;4.00;;;21.40;52.70;;;;;;20908033;28;20044;-22
2021/05/16 19:58:42;;;;;;;14.40;4.88;;;21.50;52.70;;;;;;20920133;28;20451;-22
2021/05/16 20:08:42;;;;;;;17.90;4.90;;;21.60;52.50;;;;;;20906218;28;20083;-21
2021/05/16 20:18:43;;;;;;;20.55;5.70;;;21.50;52.80;;;;;;20891680;28;20099;-22
2021/05/16 20:28:44;;;;;;;16.10;4.70;;;21.40;53.20;;;;;;20878442;28;20017;-21
2021/05/16 20:38:44;;;;;;;12.88;5.03;;;21.40;53.10;;;;;;20881310;28;20035;-21
2021/05/16 20:48:45;;;;;;;17.60;3.80;;;21.30;53.40;;;;;;20847078;28;20040;-22
2021/05/16 20:58:48;;;;;;;8.95;2.83;;;21.20;53.20;;;;;;20816964;28;20046;-21
2021/05/16 21:08:49;;;;;;;16.35;3.30;;;21.00;53.10;;;;;;20658201;23;20043;-22
2021/05/16 21:18:55;;;;;;;15.87;3.73;;;21.00;53.00;;;;;;20652439;28;20065;-21
2021/05/16 21:28:56;;;;;;;8.88;2.88;;;20.90;53.50;;;;;;20662069;28;20516;-21
2021/05/16 21:38:56;;;;;;;13.05;3.00;;;20.90;53.70;;;;;;20650724;28;20425;-21
2021/05/16 21:48:57;;;;;;;19.30;4.03;;;20.80;54.00;;;;;;20664303;28;20511;-19
2021/05/16 21:58:58;;;;;;;9.38;3.83;;;20.80;56.10;;;;;;20659148;28;20037;-21
2021/05/16 22:08:58;;;;;;;15.95;3.88;;;20.80;56.40;;;;;;20631460;28;20031;-22
2021/05/16 22:18:59;;;;;;;19.98;3.80;;;20.80;56.50;;;;;;20586456;28;20196;-22
2021/05/16 22:29:00;;;;;;;17.17;6.28;;;20.70;56.40;;;;;;20658193;28;20041;-22
2021/05/16 22:39:00;;;;;;;9.13;3.40;;;20.70;56.40;;;;;;20657579;28;20029;-22
2021/05/16 22:49:01;;;;;;;10.52;3.50;;;20.60;56.20;;;;;;20657212;28;20030;-22
2021/05/16 22:59:02;;;;;;;14.35;2.70;;;20.60;56.00;;;;;;20656136;28;20030;-22
2021/05/16 23:09:09;;;;;;;12.93;3.45;;;20.60;56.40;;;;;;20654508;28;20027;-21
2021/05/16 23:19:09;;;;;;;11.18;3.15;;;20.60;56.90;;;;;;20650292;28;20440;-21
2021/05/16 23:29:10;;;;;;;15.13;3.60;;;20.60;56.30;;;;;;20656225;28;20112;-21
2021/05/16 23:39:11;;;;;;;9.90;2.83;;;20.60;56.10;;;;;;20704744;28;20621;-21
2021/05/16 23:49:11;;;;;;;11.32;2.30;;;20.50;56.10;;;;;;20648632;28;20038;-21
2021/05/16 23:59:12;;;;;;;6.05;2.22;;;20.50;56.20;;;;;;20709842;28;20037;-21
